sensor_id;sensor_type;location;lat;lon;timestamp;temperature;humidity
50955;DHT22;36966;48.064;-0.792;2022-08-21T00:02:21;25.80;45.30
50955;DHT22;36966;48.064;-0.792;2022-08-21T00:04:40;25.80;45.30
50955;DHT22;36966;48.064;-0.792;2022-08-21T00:06:59;25.80;45.30
50955;DHT22;36966;48.064;-0.792;2022-08-21T00:09:19;25.80;45.30
50955;DHT22;36966;48.064;-0.792;2022-08-21T00:11:39;25.80;45.30
50955;DHT22;36966;48.064;-0.792;2022-08-21T00:13:59;25.80;45.30
50955;DHT22;36966;48.064;-0.792;2022-08-21T00:16:18;25.80;45.30
50955;DHT22;36966;48.064;-0.792;2022-08-21T00:18:38;25.80;45.40
50955;DHT22;36966;48.064;-0.792;2022-08-21T00:20:57;25.80;45.50
50955;DHT22;36966;48.064;-0.792;2022-08-21T00:23:16;25.80;45.50
50955;DHT22;36966;48.064;-0.792;2022-08-21T00:25:36;25.80;45.50
50955;DHT22;36966;48.064;-0.792;2022-08-21T00:27:56;25.80;45.50
50955;DHT22;36966;48.064;-0.792;2022-08-21T00:30:17;25.70;45.50
50955;DHT22;36966;48.064;-0.792;2022-08-21T00:32:38;25.70;45.60
50955;DHT22;36966;48.064;-0.792;2022-08-21T00:34:57;25.70;45.70
50955;DHT22;36966;48.064;-0.792;2022-08-21T00:37:17;25.80;45.60
50955;DHT22;36966;48.064;-0.792;2022-08-21T00:39:37;25.70;45.70
50955;DHT22;36966;48.064;-0.792;2022-08-21T00:41:56;25.70;45.80
50955;DHT22;36966;48.064;-0.792;2022-08-21T00:44:15;25.70;45.70
50955;DHT22;36966;48.064;-0.792;2022-08-21T00:46:35;25.70;45.80
50955;DHT22;36966;48.064;-0.792;2022-08-21T00:48:55;25.70;45.90
50955;DHT22;36966;48.064;-0.792;2022-08-21T00:51:21;25.70;45.90
50955;DHT22;36966;48.064;-0.792;2022-08-21T00:53:45;25.70;45.90
50955;DHT22;36966;48.064;-0.792;2022-08-21T00:56:07;25.70;45.90
50955;DHT22;36966;48.064;-0.792;2022-08-21T00:58:29;25.70;45.90
50955;DHT22;36966;48.064;-0.792;2022-08-21T01:00:50;25.70;45.90
50955;DHT22;36966;48.064;-0.792;2022-08-21T01:03:13;25.70;45.90
50955;DHT22;36966;48.064;-0.792;2022-08-21T01:05:33;25.70;46.00
50955;DHT22;36966;48.064;-0.792;2022-08-21T01:07:53;25.70;46.00
50955;DHT22;36966;48.064;-0.792;2022-08-21T01:10:12;25.60;46.00
50955;DHT22;36966;48.064;-0.792;2022-08-21T01:12:33;25.70;46.00
50955;DHT22;36966;48.064;-0.792;2022-08-21T01:14:53;25.60;46.00
50955;DHT22;36966;48.064;-0.792;2022-08-21T01:17:14;25.60;46.00
50955;DHT22;36966;48.064;-0.792;2022-08-21T01:19:34;25.60;46.00
50955;DHT22;36966;48.064;-0.792;2022-08-21T01:21:54;25.60;46.00
50955;DHT22;36966;48.064;-0.792;2022-08-21T01:24:14;25.50;46.00
50955;DHT22;36966;48.064;-0.792;2022-08-21T01:26:34;25.60;46.00
50955;DHT22;36966;48.064;-0.792;2022-08-21T01:29:13;25.60;46.10
50955;DHT22;36966;48.064;-0.792;2022-08-21T01:31:34;25.60;46.10
50955;DHT22;36966;48.064;-0.792;2022-08-21T01:33:55;25.60;46.10
50955;DHT22;36966;48.064;-0.792;2022-08-21T01:36:15;25.60;46.10
50955;DHT22;36966;48.064;-0.792;2022-08-21T01:38:34;25.50;46.10
50955;DHT22;36966;48.064;-0.792;2022-08-21T01:40:53;25.50;46.10
50955;DHT22;36966;48.064;-0.792;2022-08-21T01:43:12;25.50;46.10
50955;DHT22;36966;48.064;-0.792;2022-08-21T01:45:31;25.60;46.10
50955;DHT22;36966;48.064;-0.792;2022-08-21T01:47:50;25.50;46.10
50955;DHT22;36966;48.064;-0.792;2022-08-21T01:50:13;25.50;46.10
50955;DHT22;36966;48.064;-0.792;2022-08-21T01:52:32;25.50;46.10
50955;DHT22;36966;48.064;-0.792;2022-08-21T01:54:52;25.50;46.10
50955;DHT22;36966;48.064;-0.792;2022-08-21T01:57:12;25.50;46.10
50955;DHT22;36966;48.064;-0.792;2022-08-21T01:59:32;25.50;46.10
50955;DHT22;36966;48.064;-0.792;2022-08-21T02:01:52;25.50;46.10
50955;DHT22;36966;48.064;-0.792;2022-08-21T02:04:13;25.50;46.10
50955;DHT22;36966;48.064;-0.792;2022-08-21T02:06:33;25.50;46.20
50955;DHT22;36966;48.064;-0.792;2022-08-21T02:08:53;25.40;46.10
50955;DHT22;36966;48.064;-0.792;2022-08-21T02:11:12;25.50;46.10
50955;DHT22;36966;48.064;-0.792;2022-08-21T02:13:32;25.50;46.10
50955;DHT22;36966;48.064;-0.792;2022-08-21T02:15:51;25.40;46.10
50955;DHT22;36966;48.064;-0.792;2022-08-21T02:18:11;25.50;46.10
50955;DHT22;36966;48.064;-0.792;2022-08-21T02:20:36;25.50;46.10
50955;DHT22;36966;48.064;-0.792;2022-08-21T02:22:56;25.50;46.10
50955;DHT22;36966;48.064;-0.792;2022-08-21T02:25:16;25.40;46.10
50955;DHT22;36966;48.064;-0.792;2022-08-21T02:27:41;25.40;46.10
50955;DHT22;36966;48.064;-0.792;2022-08-21T02:30:01;25.40;46.10
50955;DHT22;36966;48.064;-0.792;2022-08-21T02:32:20;25.40;46.10
50955;DHT22;36966;48.064;-0.792;2022-08-21T02:34:40;25.40;46.10
50955;DHT22;36966;48.064;-0.792;2022-08-21T02:36:59;25.40;46.10
50955;DHT22;36966;48.064;-0.792;2022-08-21T02:39:19;25.40;46.10
50955;DHT22;36966;48.064;-0.792;2022-08-21T02:41:38;25.40;46.10
50955;DHT22;36966;48.064;-0.792;2022-08-21T02:43:57;25.40;46.10
50955;DHT22;36966;48.064;-0.792;2022-08-21T02:46:19;25.40;46.10
50955;DHT22;36966;48.064;-0.792;2022-08-21T02:48:39;25.40;46.10
50955;DHT22;36966;48.064;-0.792;2022-08-21T02:51:02;25.40;46.10
50955;DHT22;36966;48.064;-0.792;2022-08-21T02:53:23;25.40;46.10
50955;DHT22;36966;48.064;-0.792;2022-08-21T02:55:47;25.40;46.10
50955;DHT22;36966;48.064;-0.792;2022-08-21T02:58:06;25.30;46.10
50955;DHT22;36966;48.064;-0.792;2022-08-21T03:00:29;25.30;46.10
50955;DHT22;36966;48.064;-0.792;2022-08-21T03:02:49;25.30;46.10
50955;DHT22;36966;48.064;-0.792;2022-08-21T03:05:09;25.30;46.10
50955;DHT22;36966;48.064;-0.792;2022-08-21T03:07:29;25.30;46.10
50955;DHT22;36966;48.064;-0.792;2022-08-21T03:09:49;25.30;46.10
50955;DHT22;36966;48.064;-0.792;2022-08-21T03:12:08;25.30;46.10
50955;DHT22;36966;48.064;-0.792;2022-08-21T03:14:27;25.30;46.10
50955;DHT22;36966;48.064;-0.792;2022-08-21T03:16:46;25.30;46.10
50955;DHT22;36966;48.064;-0.792;2022-08-21T03:19:06;25.30;46.10
50955;DHT22;36966;48.064;-0.792;2022-08-21T03:21:26;25.30;46.10
50955;DHT22;36966;48.064;-0.792;2022-08-21T03:23:47;25.30;46.10
50955;DHT22;36966;48.064;-0.792;2022-08-21T03:26:06;25.30;46.00
50955;DHT22;36966;48.064;-0.792;2022-08-21T03:28:26;25.30;46.10
50955;DHT22;36966;48.064;-0.792;2022-08-21T03:30:47;25.30;46.00
50955;DHT22;36966;48.064;-0.792;2022-08-21T03:33:07;25.30;46.00
50955;DHT22;36966;48.064;-0.792;2022-08-21T03:35:27;25.20;46.00
50955;DHT22;36966;48.064;-0.792;2022-08-21T03:37:47;25.20;46.00
50955;DHT22;36966;48.064;-0.792;2022-08-21T03:40:08;25.20;45.90
50955;DHT22;36966;48.064;-0.792;2022-08-21T03:42:28;25.20;45.90
50955;DHT22;36966;48.064;-0.792;2022-08-21T03:44:47;25.20;45.80
50955;DHT22;36966;48.064;-0.792;2022-08-21T03:47:06;25.20;45.80
50955;DHT22;36966;48.064;-0.792;2022-08-21T03:49:25;25.20;45.80
50955;DHT22;36966;48.064;-0.792;2022-08-21T03:51:45;25.20;45.80
50955;DHT22;36966;48.064;-0.792;2022-08-21T03:54:05;25.20;45.80
50955;DHT22;36966;48.064;-0.792;2022-08-21T03:56:24;25.20;45.80
50955;DHT22;36966;48.064;-0.792;2022-08-21T03:58:44;25.20;45.80
50955;DHT22;36966;48.064;-0.792;2022-08-21T04:01:06;25.20;45.80
50955;DHT22;36966;48.064;-0.792;2022-08-21T04:03:26;25.20;45.70
50955;DHT22;36966;48.064;-0.792;2022-08-21T04:05:46;25.20;45.70
50955;DHT22;36966;48.064;-0.792;2022-08-21T04:08:06;25.20;45.70
50955;DHT22;36966;48.064;-0.792;2022-08-21T04:10:26;25.20;45.70
50955;DHT22;36966;48.064;-0.792;2022-08-21T04:12:46;25.20;45.60
50955;DHT22;36966;48.064;-0.792;2022-08-21T04:15:06;25.20;45.60
50955;DHT22;36966;48.064;-0.792;2022-08-21T04:17:26;25.20;45.60
50955;DHT22;36966;48.064;-0.792;2022-08-21T04:19:45;25.30;45.60
50955;DHT22;36966;48.064;-0.792;2022-08-21T04:22:05;25.20;45.60
50955;DHT22;36966;48.064;-0.792;2022-08-21T04:24:24;25.20;45.60
50955;DHT22;36966;48.064;-0.792;2022-08-21T04:26:43;25.20;45.60
50955;DHT22;36966;48.064;-0.792;2022-08-21T04:29:03;25.20;45.60
50955;DHT22;36966;48.064;-0.792;2022-08-21T04:31:25;25.30;45.60
50955;DHT22;36966;48.064;-0.792;2022-08-21T04:33:44;25.20;45.60
50955;DHT22;36966;48.064;-0.792;2022-08-21T04:36:04;25.30;45.50
50955;DHT22;36966;48.064;-0.792;2022-08-21T04:38:23;25.30;45.50
50955;DHT22;36966;48.064;-0.792;2022-08-21T04:40:42;25.20;45.50
50955;DHT22;36966;48.064;-0.792;2022-08-21T04:43:04;25.30;45.50
50955;DHT22;36966;48.064;-0.792;2022-08-21T04:45:27;25.30;45.50
50955;DHT22;36966;48.064;-0.792;2022-08-21T04:47:52;25.30;45.40
50955;DHT22;36966;48.064;-0.792;2022-08-21T04:50:11;25.30;45.40
50955;DHT22;36966;48.064;-0.792;2022-08-21T04:52:30;25.30;45.40
50955;DHT22;36966;48.064;-0.792;2022-08-21T04:54:50;25.30;45.40
50955;DHT22;36966;48.064;-0.792;2022-08-21T04:57:11;25.30;45.40
50955;DHT22;36966;48.064;-0.792;2022-08-21T04:59:35;25.30;45.40
50955;DHT22;36966;48.064;-0.792;2022-08-21T05:01:55;25.30;45.40
50955;DHT22;36966;48.064;-0.792;2022-08-21T05:04:18;25.30;45.40
50955;DHT22;36966;48.064;-0.792;2022-08-21T05:06:41;25.30;45.40
50955;DHT22;36966;48.064;-0.792;2022-08-21T05:09:03;25.30;45.40
50955;DHT22;36966;48.064;-0.792;2022-08-21T05:11:23;25.30;45.40
50955;DHT22;36966;48.064;-0.792;2022-08-21T05:13:42;25.30;45.40
50955;DHT22;36966;48.064;-0.792;2022-08-21T05:16:02;25.30;45.40
50955;DHT22;36966;48.064;-0.792;2022-08-21T05:18:22;25.30;45.40
50955;DHT22;36966;48.064;-0.792;2022-08-21T05:20:41;25.30;45.40
50955;DHT22;36966;48.064;-0.792;2022-08-21T05:23:10;25.30;45.40
50955;DHT22;36966;48.064;-0.792;2022-08-21T05:25:29;25.30;45.50
50955;DHT22;36966;48.064;-0.792;2022-08-21T05:27:48;25.30;45.40
50955;DHT22;36966;48.064;-0.792;2022-08-21T05:30:09;25.30;45.50
50955;DHT22;36966;48.064;-0.792;2022-08-21T05:32:28;25.40;45.50
50955;DHT22;36966;48.064;-0.792;2022-08-21T05:34:47;25.30;45.50
50955;DHT22;36966;48.064;-0.792;2022-08-21T05:37:07;25.30;45.50
50955;DHT22;36966;48.064;-0.792;2022-08-21T05:39:28;25.30;45.50
50955;DHT22;36966;48.064;-0.792;2022-08-21T05:41:48;25.30;45.60
50955;DHT22;36966;48.064;-0.792;2022-08-21T05:44:09;25.40;45.50
50955;DHT22;36966;48.064;-0.792;2022-08-21T05:46:28;25.30;45.50
50955;DHT22;36966;48.064;-0.792;2022-08-21T05:48:48;25.30;45.60
50955;DHT22;36966;48.064;-0.792;2022-08-21T05:51:10;25.30;45.50
50955;DHT22;36966;48.064;-0.792;2022-08-21T05:53:30;25.30;45.60
50955;DHT22;36966;48.064;-0.792;2022-08-21T05:55:50;25.30;45.60
50955;DHT22;36966;48.064;-0.792;2022-08-21T05:58:11;25.40;45.50
50955;DHT22;36966;48.064;-0.792;2022-08-21T06:00:31;25.30;45.50
50955;DHT22;36966;48.064;-0.792;2022-08-21T06:02:51;25.40;45.60
50955;DHT22;36966;48.064;-0.792;2022-08-21T06:05:10;25.40;45.50
50955;DHT22;36966;48.064;-0.792;2022-08-21T06:07:29;25.40;45.40
50955;DHT22;36966;48.064;-0.792;2022-08-21T06:09:48;25.40;45.40
50955;DHT22;36966;48.064;-0.792;2022-08-21T06:12:11;25.50;45.40
50955;DHT22;36966;48.064;-0.792;2022-08-21T06:14:30;25.40;45.50
50955;DHT22;36966;48.064;-0.792;2022-08-21T06:16:49;25.40;45.40
50955;DHT22;36966;48.064;-0.792;2022-08-21T06:19:09;25.50;45.50
50955;DHT22;36966;48.064;-0.792;2022-08-21T06:21:28;25.50;45.50
50955;DHT22;36966;48.064;-0.792;2022-08-21T06:23:47;25.50;45.60
50955;DHT22;36966;48.064;-0.792;2022-08-21T06:26:07;25.40;45.60
50955;DHT22;36966;48.064;-0.792;2022-08-21T06:28:27;25.40;45.50
50955;DHT22;36966;48.064;-0.792;2022-08-21T06:30:46;25.50;45.50
50955;DHT22;36966;48.064;-0.792;2022-08-21T06:33:06;25.50;45.50
50955;DHT22;36966;48.064;-0.792;2022-08-21T06:35:26;25.50;45.60
50955;DHT22;36966;48.064;-0.792;2022-08-21T06:37:47;25.50;45.60
50955;DHT22;36966;48.064;-0.792;2022-08-21T06:40:07;25.50;45.60
50955;DHT22;36966;48.064;-0.792;2022-08-21T06:42:27;25.50;45.60
50955;DHT22;36966;48.064;-0.792;2022-08-21T06:44:47;25.50;45.60
50955;DHT22;36966;48.064;-0.792;2022-08-21T06:47:07;25.50;45.70
50955;DHT22;36966;48.064;-0.792;2022-08-21T06:49:26;25.50;45.70
50955;DHT22;36966;48.064;-0.792;2022-08-21T06:51:45;25.50;45.70
50955;DHT22;36966;48.064;-0.792;2022-08-21T06:54:04;25.50;45.80
50955;DHT22;36966;48.064;-0.792;2022-08-21T06:56:24;25.50;45.80
50955;DHT22;36966;48.064;-0.792;2022-08-21T06:58:43;25.50;45.80
50955;DHT22;36966;48.064;-0.792;2022-08-21T07:01:03;25.40;45.80
50955;DHT22;36966;48.064;-0.792;2022-08-21T07:03:25;25.50;45.80
50955;DHT22;36966;48.064;-0.792;2022-08-21T07:05:45;25.40;45.90
50955;DHT22;36966;48.064;-0.792;2022-08-21T07:08:05;25.40;45.90
50955;DHT22;36966;48.064;-0.792;2022-08-21T07:10:26;25.50;45.90
50955;DHT22;36966;48.064;-0.792;2022-08-21T07:12:45;25.40;46.00
50955;DHT22;36966;48.064;-0.792;2022-08-21T07:15:05;25.40;46.00
50955;DHT22;36966;48.064;-0.792;2022-08-21T07:17:24;25.50;46.00
50955;DHT22;36966;48.064;-0.792;2022-08-21T07:19:43;25.50;46.10
50955;DHT22;36966;48.064;-0.792;2022-08-21T07:22:02;25.40;46.10
50955;DHT22;36966;48.064;-0.792;2022-08-21T07:24:22;25.50;46.10
50955;DHT22;36966;48.064;-0.792;2022-08-21T07:26:42;25.50;46.20
50955;DHT22;36966;48.064;-0.792;2022-08-21T07:29:01;25.40;46.10
50955;DHT22;36966;48.064;-0.792;2022-08-21T07:31:23;25.40;46.20
50955;DHT22;36966;48.064;-0.792;2022-08-21T07:33:43;25.50;46.10
50955;DHT22;36966;48.064;-0.792;2022-08-21T07:36:03;25.50;46.20
50955;DHT22;36966;48.064;-0.792;2022-08-21T07:38:23;25.50;46.30
50955;DHT22;36966;48.064;-0.792;2022-08-21T07:40:43;25.40;46.20
50955;DHT22;36966;48.064;-0.792;2022-08-21T07:43:02;25.40;46.30
50955;DHT22;36966;48.064;-0.792;2022-08-21T07:45:22;25.40;46.30
50955;DHT22;36966;48.064;-0.792;2022-08-21T07:47:43;25.40;46.30
50955;DHT22;36966;48.064;-0.792;2022-08-21T07:50:03;25.50;46.20
50955;DHT22;36966;48.064;-0.792;2022-08-21T07:52:22;25.40;46.30
50955;DHT22;36966;48.064;-0.792;2022-08-21T07:54:41;25.40;46.40
50955;DHT22;36966;48.064;-0.792;2022-08-21T07:57:01;25.50;46.30
50955;DHT22;36966;48.064;-0.792;2022-08-21T07:59:20;25.40;46.40
50955;DHT22;36966;48.064;-0.792;2022-08-21T08:01:40;25.40;46.50
50955;DHT22;36966;48.064;-0.792;2022-08-21T08:03:59;25.50;46.40
50955;DHT22;36966;48.064;-0.792;2022-08-21T08:06:18;25.40;46.40
50955;DHT22;36966;48.064;-0.792;2022-08-21T08:08:39;25.40;46.40
50955;DHT22;36966;48.064;-0.792;2022-08-21T08:10:59;25.40;46.40
50955;DHT22;36966;48.064;-0.792;2022-08-21T08:13:19;25.50;46.50
50955;DHT22;36966;48.064;-0.792;2022-08-21T08:15:38;25.40;46.70
50955;DHT22;36966;48.064;-0.792;2022-08-21T08:17:57;25.40;46.60
50955;DHT22;36966;48.064;-0.792;2022-08-21T08:20:18;25.40;46.60
50955;DHT22;36966;48.064;-0.792;2022-08-21T08:22:38;25.40;46.60
50955;DHT22;36966;48.064;-0.792;2022-08-21T08:24:57;25.40;46.60
50955;DHT22;36966;48.064;-0.792;2022-08-21T08:27:18;25.40;46.60
50955;DHT22;36966;48.064;-0.792;2022-08-21T08:29:38;25.50;46.60
50955;DHT22;36966;48.064;-0.792;2022-08-21T08:31:57;25.50;46.70
50955;DHT22;36966;48.064;-0.792;2022-08-21T08:34:16;25.50;46.60
50955;DHT22;36966;48.064;-0.792;2022-08-21T08:36:37;25.50;46.60
50955;DHT22;36966;48.064;-0.792;2022-08-21T08:38:56;25.50;46.70
50955;DHT22;36966;48.064;-0.792;2022-08-21T08:41:18;25.50;46.60
50955;DHT22;36966;48.064;-0.792;2022-08-21T08:43:38;25.60;46.60
50955;DHT22;36966;48.064;-0.792;2022-08-21T08:46:03;25.50;46.60
50955;DHT22;36966;48.064;-0.792;2022-08-21T08:51:09;25.50;46.60
50955;DHT22;36966;48.064;-0.792;2022-08-21T08:53:37;25.60;46.60
50955;DHT22;36966;48.064;-0.792;2022-08-21T08:56:03;25.60;46.70
50955;DHT22;36966;48.064;-0.792;2022-08-21T08:58:24;25.60;46.80
50955;DHT22;36966;48.064;-0.792;2022-08-21T09:00:47;25.60;46.80
50955;DHT22;36966;48.064;-0.792;2022-08-21T09:03:07;25.60;46.80
50955;DHT22;36966;48.064;-0.792;2022-08-21T09:05:35;25.60;46.90
50955;DHT22;36966;48.064;-0.792;2022-08-21T09:08:15;25.60;47.00
50955;DHT22;36966;48.064;-0.792;2022-08-21T09:15:54;25.60;47.00
50955;DHT22;36966;48.064;-0.792;2022-08-21T09:18:35;25.60;47.10
50955;DHT22;36966;48.064;-0.792;2022-08-21T09:21:24;25.60;47.00
50955;DHT22;36966;48.064;-0.792;2022-08-21T09:23:55;25.70;47.10
50955;DHT22;36966;48.064;-0.792;2022-08-21T09:26:20;25.70;47.10
50955;DHT22;36966;48.064;-0.792;2022-08-21T09:28:41;25.70;47.00
50955;DHT22;36966;48.064;-0.792;2022-08-21T09:31:06;25.70;47.20
50955;DHT22;36966;48.064;-0.792;2022-08-21T09:33:25;25.80;47.10
50955;DHT22;36966;48.064;-0.792;2022-08-21T09:35:51;25.80;47.10
50955;DHT22;36966;48.064;-0.792;2022-08-21T09:38:11;25.80;47.10
50955;DHT22;36966;48.064;-0.792;2022-08-21T09:40:45;25.90;47.00
50955;DHT22;36966;48.064;-0.792;2022-08-21T09:45:32;26.00;47.10
50955;DHT22;36966;48.064;-0.792;2022-08-21T09:47:51;26.10;47.00
50955;DHT22;36966;48.064;-0.792;2022-08-21T09:50:24;26.10;46.90
50955;DHT22;36966;48.064;-0.792;2022-08-21T09:52:47;26.20;46.80
50955;DHT22;36966;48.064;-0.792;2022-08-21T09:55:49;26.20;46.80
50955;DHT22;36966;48.064;-0.792;2022-08-21T09:58:20;26.20;46.80
50955;DHT22;36966;48.064;-0.792;2022-08-21T10:00:40;26.20;46.80
50955;DHT22;36966;48.064;-0.792;2022-08-21T10:03:19;26.20;46.70
50955;DHT22;36966;48.064;-0.792;2022-08-21T10:05:49;26.20;46.70
50955;DHT22;36966;48.064;-0.792;2022-08-21T10:08:18;26.30;46.70
50955;DHT22;36966;48.064;-0.792;2022-08-21T10:10:37;26.30;46.70
50955;DHT22;36966;48.064;-0.792;2022-08-21T10:15:39;26.30;46.70
50955;DHT22;36966;48.064;-0.792;2022-08-21T10:18:10;26.30;46.70
50955;DHT22;36966;48.064;-0.792;2022-08-21T10:20:41;26.30;46.60
50955;DHT22;36966;48.064;-0.792;2022-08-21T10:34:32;26.30;46.60
50955;DHT22;36966;48.064;-0.792;2022-08-21T10:39:32;26.30;46.70
50955;DHT22;36966;48.064;-0.792;2022-08-21T10:52:54;26.50;46.50
50955;DHT22;36966;48.064;-0.792;2022-08-21T10:55:19;26.50;46.50
50955;DHT22;36966;48.064;-0.792;2022-08-21T10:57:45;26.50;46.40
50955;DHT22;36966;48.064;-0.792;2022-08-21T11:00:19;26.50;46.50
50955;DHT22;36966;48.064;-0.792;2022-08-21T11:03:00;26.50;46.40
50955;DHT22;36966;48.064;-0.792;2022-08-21T11:05:52;26.50;46.40
50955;DHT22;36966;48.064;-0.792;2022-08-21T11:10:53;26.60;46.30
50955;DHT22;36966;48.064;-0.792;2022-08-21T11:13:19;26.50;46.30
50955;DHT22;36966;48.064;-0.792;2022-08-21T11:15:50;26.60;46.30
50955;DHT22;36966;48.064;-0.792;2022-08-21T11:18:26;26.60;46.30
50955;DHT22;36966;48.064;-0.792;2022-08-21T11:20:54;26.50;46.30
50955;DHT22;36966;48.064;-0.792;2022-08-21T11:26:09;26.60;46.40
50955;DHT22;36966;48.064;-0.792;2022-08-21T11:28:35;26.60;46.40
50955;DHT22;36966;48.064;-0.792;2022-08-21T11:36:42;26.50;46.50
50955;DHT22;36966;48.064;-0.792;2022-08-21T11:40:16;26.60;46.40
50955;DHT22;36966;48.064;-0.792;2022-08-21T11:47:28;26.50;46.50
50955;DHT22;36966;48.064;-0.792;2022-08-21T11:52:38;26.50;46.60
50955;DHT22;36966;48.064;-0.792;2022-08-21T11:55:12;26.40;46.60
50955;DHT22;36966;48.064;-0.792;2022-08-21T11:57:52;26.40;46.60
50955;DHT22;36966;48.064;-0.792;2022-08-21T12:00:29;26.40;46.60
50955;DHT22;36966;48.064;-0.792;2022-08-21T12:02:52;26.40;46.70
50955;DHT22;36966;48.064;-0.792;2022-08-21T12:05:32;26.30;46.70
50955;DHT22;36966;48.064;-0.792;2022-08-21T12:08:14;26.30;46.80
50955;DHT22;36966;48.064;-0.792;2022-08-21T12:10:38;26.30;46.70
50955;DHT22;36966;48.064;-0.792;2022-08-21T12:13:26;26.30;46.70
50955;DHT22;36966;48.064;-0.792;2022-08-21T12:15:46;26.30;46.80
50955;DHT22;36966;48.064;-0.792;2022-08-21T12:18:22;26.30;46.80
50955;DHT22;36966;48.064;-0.792;2022-08-21T12:20:56;26.30;46.80
50955;DHT22;36966;48.064;-0.792;2022-08-21T12:23:19;26.30;46.90
50955;DHT22;36966;48.064;-0.792;2022-08-21T12:25:47;26.30;47.00
50955;DHT22;36966;48.064;-0.792;2022-08-21T12:28:10;26.30;46.90
50955;DHT22;36966;48.064;-0.792;2022-08-21T12:30:36;26.30;46.90
50955;DHT22;36966;48.064;-0.792;2022-08-21T12:33:00;26.30;47.00
50955;DHT22;36966;48.064;-0.792;2022-08-21T12:35:33;26.30;47.00
50955;DHT22;36966;48.064;-0.792;2022-08-21T12:38:15;26.30;47.10
50955;DHT22;36966;48.064;-0.792;2022-08-21T12:40:50;26.20;47.10
50955;DHT22;36966;48.064;-0.792;2022-08-21T12:45:52;26.20;47.20
50955;DHT22;36966;48.064;-0.792;2022-08-21T12:51:31;26.20;47.50
50955;DHT22;36966;48.064;-0.792;2022-08-21T12:53:57;26.20;47.80
50955;DHT22;36966;48.064;-0.792;2022-08-21T12:56:20;26.20;47.90
50955;DHT22;36966;48.064;-0.792;2022-08-21T12:58:51;26.20;48.10
50955;DHT22;36966;48.064;-0.792;2022-08-21T13:03:41;26.20;48.50
50955;DHT22;36966;48.064;-0.792;2022-08-21T13:06:03;26.20;48.70
50955;DHT22;36966;48.064;-0.792;2022-08-21T13:08:23;26.20;48.90
50955;DHT22;36966;48.064;-0.792;2022-08-21T13:10:45;26.20;49.00
50955;DHT22;36966;48.064;-0.792;2022-08-21T13:13:08;26.20;49.30
50955;DHT22;36966;48.064;-0.792;2022-08-21T13:15:32;26.20;49.60
50955;DHT22;36966;48.064;-0.792;2022-08-21T13:17:52;26.20;49.80
50955;DHT22;36966;48.064;-0.792;2022-08-21T13:20:27;26.20;49.70
50955;DHT22;36966;48.064;-0.792;2022-08-21T13:22:47;26.20;49.60
50955;DHT22;36966;48.064;-0.792;2022-08-21T13:25:13;26.20;49.40
50955;DHT22;36966;48.064;-0.792;2022-08-21T13:27:34;26.10;49.40
50955;DHT22;36966;48.064;-0.792;2022-08-21T13:30:10;26.20;49.30
50955;DHT22;36966;48.064;-0.792;2022-08-21T13:32:31;26.20;49.40
50955;DHT22;36966;48.064;-0.792;2022-08-21T13:34:52;26.20;49.50
50955;DHT22;36966;48.064;-0.792;2022-08-21T13:37:11;26.20;49.60
50955;DHT22;36966;48.064;-0.792;2022-08-21T13:39:31;26.20;49.90
50955;DHT22;36966;48.064;-0.792;2022-08-21T13:41:55;26.10;49.90
50955;DHT22;36966;48.064;-0.792;2022-08-21T13:46:40;26.20;50.00
50955;DHT22;36966;48.064;-0.792;2022-08-21T13:49:02;26.10;49.80
50955;DHT22;36966;48.064;-0.792;2022-08-21T13:51:22;26.10;49.90
50955;DHT22;36966;48.064;-0.792;2022-08-21T13:56:04;26.10;49.90
50955;DHT22;36966;48.064;-0.792;2022-08-21T14:00:52;26.10;49.70
50955;DHT22;36966;48.064;-0.792;2022-08-21T14:03:26;26.10;50.20
50955;DHT22;36966;48.064;-0.792;2022-08-21T14:05:46;26.10;50.30
50955;DHT22;36966;48.064;-0.792;2022-08-21T14:08:30;26.10;50.30
50955;DHT22;36966;48.064;-0.792;2022-08-21T14:10:51;26.00;50.30
50955;DHT22;36966;48.064;-0.792;2022-08-21T14:13:36;26.10;50.00
50955;DHT22;36966;48.064;-0.792;2022-08-21T14:16:01;26.00;49.90
50955;DHT22;36966;48.064;-0.792;2022-08-21T14:18:20;26.00;50.00
50955;DHT22;36966;48.064;-0.792;2022-08-21T14:20:40;26.00;49.90
50955;DHT22;36966;48.064;-0.792;2022-08-21T14:23:00;26.00;49.90
50955;DHT22;36966;48.064;-0.792;2022-08-21T14:28:15;26.00;50.10
50955;DHT22;36966;48.064;-0.792;2022-08-21T14:30:37;26.00;50.00
50955;DHT22;36966;48.064;-0.792;2022-08-21T14:32:57;26.00;50.00
50955;DHT22;36966;48.064;-0.792;2022-08-21T14:35:16;26.00;50.20
50955;DHT22;36966;48.064;-0.792;2022-08-21T14:37:36;26.00;50.20
50955;DHT22;36966;48.064;-0.792;2022-08-21T14:39:56;26.00;50.40
50955;DHT22;36966;48.064;-0.792;2022-08-21T14:42:15;26.00;50.40
50955;DHT22;36966;48.064;-0.792;2022-08-21T14:44:35;26.00;50.50
50955;DHT22;36966;48.064;-0.792;2022-08-21T14:46:55;26.00;50.60
50955;DHT22;36966;48.064;-0.792;2022-08-21T14:49:14;26.10;50.90
50955;DHT22;36966;48.064;-0.792;2022-08-21T14:51:34;26.00;50.80
50955;DHT22;36966;48.064;-0.792;2022-08-21T14:53:53;26.10;51.20
50955;DHT22;36966;48.064;-0.792;2022-08-21T14:56:13;26.00;51.10
50955;DHT22;36966;48.064;-0.792;2022-08-21T14:58:39;26.10;51.30
50955;DHT22;36966;48.064;-0.792;2022-08-21T15:00:59;26.10;51.40
50955;DHT22;36966;48.064;-0.792;2022-08-21T15:03:22;26.10;51.30
50955;DHT22;36966;48.064;-0.792;2022-08-21T15:05:41;26.10;51.30
50955;DHT22;36966;48.064;-0.792;2022-08-21T15:08:01;26.10;51.50
50955;DHT22;36966;48.064;-0.792;2022-08-21T15:10:20;26.10;51.40
50955;DHT22;36966;48.064;-0.792;2022-08-21T15:12:39;26.10;51.50
50955;DHT22;36966;48.064;-0.792;2022-08-21T15:14:59;26.10;51.40
50955;DHT22;36966;48.064;-0.792;2022-08-21T15:17:19;26.10;51.40
50955;DHT22;36966;48.064;-0.792;2022-08-21T15:19:38;26.00;51.40
50955;DHT22;36966;48.064;-0.792;2022-08-21T15:21:57;26.10;51.30
50955;DHT22;36966;48.064;-0.792;2022-08-21T15:24:17;26.10;51.20
50955;DHT22;36966;48.064;-0.792;2022-08-21T15:26:36;26.00;51.30
50955;DHT22;36966;48.064;-0.792;2022-08-21T15:28:55;26.10;51.30
50955;DHT22;36966;48.064;-0.792;2022-08-21T15:31:14;26.10;51.40
50955;DHT22;36966;48.064;-0.792;2022-08-21T15:33:34;26.10;51.20
50955;DHT22;36966;48.064;-0.792;2022-08-21T15:35:54;26.10;52.10
50955;DHT22;36966;48.064;-0.792;2022-08-21T15:38:14;26.00;54.30
50955;DHT22;36966;48.064;-0.792;2022-08-21T15:40:35;25.90;54.40
50955;DHT22;36966;48.064;-0.792;2022-08-21T15:42:58;25.80;53.40
50955;DHT22;36966;48.064;-0.792;2022-08-21T15:45:18;25.80;52.90
50955;DHT22;36966;48.064;-0.792;2022-08-21T15:47:39;25.70;53.20
50955;DHT22;36966;48.064;-0.792;2022-08-21T15:50:01;25.70;53.90
50955;DHT22;36966;48.064;-0.792;2022-08-21T15:52:21;25.70;53.20
50955;DHT22;36966;48.064;-0.792;2022-08-21T15:54:41;25.60;52.80
50955;DHT22;36966;48.064;-0.792;2022-08-21T15:57:00;25.30;54.10
50955;DHT22;36966;48.064;-0.792;2022-08-21T15:59:21;25.30;54.20
50955;DHT22;36966;48.064;-0.792;2022-08-21T16:01:41;25.30;53.70